createdAt,value
2023-10-04T00:00:10.757Z,9.61
2023-10-04T00:02:56.510Z,9.63
2023-10-04T00:05:42.194Z,8.18
2023-10-04T00:08:27.910Z,9.85
2023-10-04T00:11:16.415Z,9.71
2023-10-04T00:14:01.905Z,9.68
2023-10-04T00:16:47.465Z,9.60
2023-10-04T00:19:33.078Z,9.18
2023-10-04T00:22:18.818Z,9.19
2023-10-04T00:25:05.196Z,9.65
2023-10-04T00:27:52.548Z,9.54
2023-10-04T00:30:37.941Z,8.73
2023-10-04T00:33:23.569Z,8.85
2023-10-04T00:36:09.463Z,8.77
2023-10-04T00:38:55.053Z,9.01
2023-10-04T00:41:41.559Z,9.26
2023-10-04T00:44:26.937Z,9.28
2023-10-04T00:47:12.546Z,9.17
2023-10-04T00:49:57.917Z,8.54
2023-10-04T00:52:52.396Z,9.37
2023-10-04T00:55:39.202Z,9.45
2023-10-04T00:58:24.884Z,9.02
2023-10-04T01:01:10.173Z,8.93
2023-10-04T01:03:55.647Z,8.89
2023-10-04T01:06:41.392Z,8.93
2023-10-04T01:09:28.247Z,9.24
2023-10-04T01:12:13.560Z,9.25
2023-10-04T01:14:59.057Z,9.09
2023-10-04T01:17:44.426Z,9.07
2023-10-04T01:20:30.183Z,9.18
2023-10-04T01:23:16.082Z,8.61
2023-10-04T01:26:02.100Z,8.89
2023-10-04T01:28:47.401Z,8.76
2023-10-04T01:31:32.919Z,8.42
2023-10-04T01:34:18.474Z,8.91
2023-10-04T01:37:03.944Z,8.35
2023-10-04T01:39:49.121Z,8.77
2023-10-04T01:42:34.850Z,8.60
2023-10-04T01:45:20.429Z,8.67
2023-10-04T01:48:06.781Z,8.86
2023-10-04T01:50:51.905Z,8.82
2023-10-04T01:53:37.409Z,8.84
2023-10-04T01:56:23.053Z,9.11
2023-10-04T01:59:08.856Z,9.11
2023-10-04T02:01:54.148Z,9.06
2023-10-04T02:04:39.680Z,8.64
2023-10-04T02:07:24.817Z,8.80
2023-10-04T02:10:10.524Z,9.10
2023-10-04T02:12:55.840Z,8.75
2023-10-04T02:15:41.294Z,9.05
2023-10-04T02:18:26.964Z,9.20
2023-10-04T02:21:12.938Z,8.83
2023-10-04T02:23:58.028Z,8.70
2023-10-04T02:26:43.300Z,8.58
2023-10-04T02:29:28.742Z,8.90
2023-10-04T02:32:14.364Z,8.32
2023-10-04T02:35:00.801Z,8.43
2023-10-04T02:37:46.628Z,8.36
2023-10-04T02:40:32.104Z,8.44
2023-10-04T02:43:18.661Z,8.45
2023-10-04T02:46:04.358Z,8.75
2023-10-04T02:48:49.738Z,8.56
2023-10-04T02:51:35.177Z,8.99
2023-10-04T02:54:21.125Z,8.95
2023-10-04T02:57:06.906Z,8.92
2023-10-04T02:59:52.243Z,8.94
2023-10-04T03:02:38.337Z,8.94
2023-10-04T03:05:24.659Z,8.91
2023-10-04T03:08:12.144Z,8.99
2023-10-04T03:10:57.478Z,9.09
2023-10-04T03:13:47.199Z,9.00
2023-10-04T03:16:33.450Z,8.90
2023-10-04T03:19:19.002Z,8.91
2023-10-04T03:22:05.135Z,8.94
2023-10-04T03:24:51.089Z,9.17
2023-10-04T03:27:36.575Z,9.17
2023-10-04T03:30:22.635Z,9.06
2023-10-04T03:33:11.264Z,8.96
2023-10-04T03:35:58.617Z,9.00
2023-10-04T03:38:44.932Z,8.98
2023-10-04T03:41:30.893Z,9.19
2023-10-04T03:44:21.303Z,9.16
2023-10-04T03:47:07.178Z,9.14
2023-10-04T03:49:52.805Z,8.97
2023-10-04T03:52:38.076Z,8.97
2023-10-04T03:55:23.846Z,8.81
2023-10-04T03:58:09.755Z,8.81
2023-10-04T04:00:55.521Z,8.74
2023-10-04T04:03:40.889Z,9.03
2023-10-04T04:06:26.395Z,8.78
2023-10-04T04:09:12.053Z,8.86
2023-10-04T04:11:57.277Z,8.38
2023-10-04T04:14:42.821Z,8.67
2023-10-04T04:17:28.802Z,8.90
2023-10-04T04:20:14.588Z,8.99
2023-10-04T04:23:00.775Z,8.78
2023-10-04T04:25:46.714Z,8.97
2023-10-04T04:28:33.502Z,9.02
2023-10-04T04:31:18.780Z,8.65
2023-10-04T04:34:05.653Z,8.66
2023-10-04T04:36:50.872Z,8.60
2023-10-04T04:39:36.446Z,8.81
2023-10-04T04:42:22.075Z,8.61
2023-10-04T04:45:08.332Z,8.65
2023-10-04T04:47:55.609Z,8.15
2023-10-04T04:50:42.081Z,8.38
2023-10-04T04:53:27.639Z,8.17
2023-10-04T04:56:14.739Z,8.33
2023-10-04T04:59:01.273Z,8.26
2023-10-04T05:01:47.927Z,8.01
2023-10-04T05:04:33.279Z,8.18
2023-10-04T05:07:19.311Z,8.37
2023-10-04T05:10:05.018Z,8.49
2023-10-04T05:12:50.624Z,8.48
2023-10-04T05:15:36.506Z,8.57
2023-10-04T05:18:22.832Z,8.66
2023-10-04T05:21:08.412Z,8.55
2023-10-04T05:23:53.905Z,8.46
2023-10-04T05:26:39.521Z,8.49
2023-10-04T05:29:24.818Z,8.55
2023-10-04T05:32:10.599Z,8.50
2023-10-04T05:34:56.045Z,8.73
2023-10-04T05:37:45.353Z,8.79
2023-10-04T05:40:35.745Z,8.57
2023-10-04T05:43:21.403Z,8.45
2023-10-04T05:46:06.957Z,8.60
2023-10-04T05:48:52.194Z,8.52
2023-10-04T05:51:37.708Z,8.49
2023-10-04T05:54:23.242Z,8.61
2023-10-04T05:57:08.978Z,8.71
2023-10-04T05:59:54.238Z,8.79
2023-10-04T06:02:39.327Z,8.76
2023-10-04T06:05:26.181Z,8.91
2023-10-04T06:08:15.782Z,8.90
2023-10-04T06:11:01.441Z,8.75
2023-10-04T06:13:46.422Z,8.76
2023-10-04T06:16:31.917Z,8.63
2023-10-04T06:19:29.409Z,8.77
2023-10-04T06:22:16.002Z,8.53
2023-10-04T06:25:01.483Z,8.80
2023-10-04T06:27:49.402Z,8.44
2023-10-04T06:30:35.324Z,8.75
2023-10-04T06:33:20.846Z,8.64
2023-10-04T06:36:06.410Z,8.73
2023-10-04T06:38:51.831Z,8.84
2023-10-04T06:41:37.256Z,8.97
2023-10-04T06:44:23.116Z,9.15
2023-10-04T06:47:08.636Z,8.76
2023-10-04T06:49:53.946Z,8.70
2023-10-04T06:52:39.597Z,8.80
2023-10-04T06:55:25.080Z,9.01
2023-10-04T06:58:10.810Z,9.18
2023-10-04T07:00:56.345Z,9.27
2023-10-04T07:03:41.648Z,9.41
2023-10-04T07:06:27.091Z,9.43
2023-10-04T07:09:13.283Z,9.66
2023-10-04T07:11:58.534Z,9.66
2023-10-04T07:14:44.098Z,9.66
2023-10-04T07:17:32.436Z,9.57
2023-10-04T07:20:19.428Z,8.82
2023-10-04T07:23:06.128Z,9.23
2023-10-04T07:25:51.627Z,9.40
2023-10-04T07:28:37.184Z,9.54
2023-10-04T07:31:22.738Z,9.49
2023-10-04T07:34:08.192Z,9.61
2023-10-04T07:36:54.226Z,9.66
2023-10-04T07:39:39.758Z,9.66
2023-10-04T07:42:25.137Z,9.58
2023-10-04T07:45:11.105Z,9.84
2023-10-04T07:47:57.075Z,9.38
2023-10-04T07:50:42.668Z,10.11
2023-10-04T07:53:28.343Z,10.07
2023-10-04T07:56:13.606Z,10.20
2023-10-04T07:58:59.344Z,10.27
2023-10-04T08:01:45.386Z,10.33
2023-10-04T08:04:31.211Z,10.11
2023-10-04T08:07:16.470Z,9.60
2023-10-04T08:10:01.950Z,10.01
2023-10-04T08:12:47.346Z,10.22
2023-10-04T08:15:34.629Z,10.39
2023-10-04T08:18:19.938Z,10.62
2023-10-04T08:21:05.584Z,10.41
2023-10-04T08:23:51.186Z,10.19
2023-10-04T08:26:37.012Z,10.38
2023-10-04T08:29:22.229Z,10.05
2023-10-04T08:32:07.753Z,10.55
2023-10-04T08:34:53.286Z,10.49
2023-10-04T08:37:39.036Z,10.44
2023-10-04T08:40:27.169Z,10.33
2023-10-04T08:43:13.935Z,10.73
2023-10-04T08:45:59.598Z,10.73
2023-10-04T08:48:45.645Z,10.70
2023-10-04T08:52:00.390Z,10.85
2023-10-04T08:54:53.507Z,10.79
2023-10-04T08:57:40.284Z,10.79
2023-10-04T09:00:31.195Z,10.96
2023-10-04T09:03:20.751Z,10.55
2023-10-04T09:06:06.735Z,11.06
2023-10-04T09:08:52.240Z,11.41
2023-10-04T09:11:37.961Z,11.68
2023-10-04T09:14:23.259Z,11.38
2023-10-04T09:17:09.781Z,11.59
2023-10-04T09:19:56.504Z,11.91
2023-10-04T09:22:42.198Z,11.74
2023-10-04T09:25:37.841Z,12.18
2023-10-04T09:28:40.740Z,11.94
2023-10-04T09:31:26.087Z,12.27
2023-10-04T09:34:14.887Z,12.18
2023-10-04T09:37:00.850Z,12.62
2023-10-04T09:39:46.777Z,13.11
2023-10-04T09:42:32.470Z,13.13
2023-10-04T09:45:19.063Z,13.62
2023-10-04T09:48:04.639Z,13.32
2023-10-04T09:50:50.294Z,12.90
2023-10-04T09:53:36.178Z,13.51
2023-10-04T09:56:21.985Z,13.34
2023-10-04T09:59:07.658Z,13.63
2023-10-04T10:01:54.476Z,13.97
2023-10-04T10:04:44.221Z,13.94
2023-10-04T10:07:34.642Z,14.01
2023-10-04T10:10:22.412Z,14.10
2023-10-04T10:13:09.427Z,13.84
2023-10-04T10:15:54.999Z,13.95
2023-10-04T10:18:41.481Z,14.18
2023-10-04T10:22:05.442Z,13.62
2023-10-04T10:25:08.434Z,14.23
2023-10-04T10:28:02.532Z,14.22
2023-10-04T10:30:48.448Z,14.38
2023-10-04T10:33:33.626Z,14.39
2023-10-04T10:36:25.941Z,14.53
2023-10-04T10:39:22.004Z,14.44
2023-10-04T10:42:07.505Z,14.40
2023-10-04T10:45:25.511Z,14.25
2023-10-04T10:48:14.573Z,13.73
2023-10-04T10:51:01.055Z,13.98
2023-10-04T10:53:46.423Z,13.86
2023-10-04T10:56:31.700Z,14.14
2023-10-04T10:59:17.325Z,14.01
2023-10-04T11:02:06.028Z,14.21
2023-10-04T11:04:52.741Z,14.01
2023-10-04T11:07:38.077Z,14.73
2023-10-04T11:10:26.332Z,14.78
2023-10-04T11:13:16.124Z,14.17
2023-10-04T11:16:01.694Z,14.29
2023-10-04T11:18:47.166Z,13.97
2023-10-04T11:21:33.802Z,14.24
2023-10-04T11:24:21.061Z,13.82
2023-10-04T11:27:09.069Z,13.80
2023-10-04T11:29:55.098Z,13.68
2023-10-04T11:32:41.294Z,13.89
2023-10-04T11:35:36.327Z,13.93
2023-10-04T11:38:22.149Z,13.38
2023-10-04T11:41:07.696Z,13.75
2023-10-04T11:43:53.250Z,13.66
2023-10-04T11:46:56.528Z,13.85
2023-10-04T11:49:56.472Z,14.03
2023-10-04T11:52:41.975Z,14.39
2023-10-04T11:55:28.119Z,14.42
2023-10-04T11:58:13.329Z,14.09
2023-10-04T12:01:08.407Z,14.35
2023-10-04T12:03:54.154Z,14.61
2023-10-04T12:06:39.562Z,14.28
2023-10-04T12:09:24.781Z,14.09
2023-10-04T12:12:10.383Z,14.02
2023-10-04T12:14:55.917Z,14.30
2023-10-04T12:17:41.309Z,14.43
2023-10-04T12:20:27.027Z,14.51
2023-10-04T12:23:13.157Z,14.80
2023-10-04T12:25:58.674Z,14.79
2023-10-04T12:28:44.335Z,14.38
2023-10-04T12:31:31.220Z,14.42
2023-10-04T12:34:18.092Z,14.50
2023-10-04T12:37:03.706Z,14.40
2023-10-04T12:39:49.109Z,14.32
2023-10-04T12:42:34.255Z,14.32
2023-10-04T12:45:22.767Z,14.51
2023-10-04T12:48:08.335Z,14.45
2023-10-04T12:50:54.511Z,14.30
2023-10-04T12:53:40.359Z,14.41
2023-10-04T12:56:26.109Z,14.61
2023-10-04T12:59:11.557Z,14.59
2023-10-04T13:01:56.733Z,14.77
2023-10-04T13:04:42.013Z,14.91
2023-10-04T13:07:27.431Z,14.64
2023-10-04T13:10:12.788Z,14.43
2023-10-04T13:12:58.546Z,14.21
2023-10-04T13:15:43.951Z,13.86
2023-10-04T13:18:29.673Z,14.05
2023-10-04T13:21:16.125Z,14.20
2023-10-04T13:24:02.117Z,14.27
2023-10-04T13:26:47.305Z,14.39
2023-10-04T13:29:33.056Z,14.29
2023-10-04T13:32:18.503Z,14.60
2023-10-04T13:35:04.456Z,14.48
2023-10-04T13:37:49.927Z,14.53
2023-10-04T13:40:35.572Z,14.96
2023-10-04T13:43:21.086Z,14.66
2023-10-04T13:46:06.524Z,14.73
2023-10-04T13:48:51.647Z,14.36
2023-10-04T13:51:37.259Z,14.47
2023-10-04T13:54:23.013Z,14.15
2023-10-04T13:57:08.540Z,14.37
2023-10-04T13:59:53.830Z,14.25
2023-10-04T14:02:39.389Z,14.17
2023-10-04T14:05:24.937Z,14.40
2023-10-04T14:08:10.622Z,14.29
2023-10-04T14:10:56.476Z,14.29
2023-10-04T14:13:41.933Z,13.80
2023-10-04T14:16:27.283Z,13.70
2023-10-04T14:19:13.807Z,13.83
2023-10-04T14:22:00.491Z,13.55
2023-10-04T14:24:45.826Z,13.40
2023-10-04T14:27:31.331Z,13.61
2023-10-04T14:30:17.161Z,13.28
2023-10-04T14:33:02.855Z,13.48
2023-10-04T14:35:48.400Z,13.70
2023-10-04T14:38:33.700Z,13.43
2023-10-04T14:41:19.151Z,14.00
2023-10-04T14:44:04.911Z,13.72
2023-10-04T14:46:50.781Z,13.46
2023-10-04T15:53:16.633Z,12.20
2023-10-04T15:56:02.229Z,12.65
2023-10-04T15:58:47.504Z,12.93
2023-10-04T16:01:33.225Z,12.78
2023-10-04T16:04:18.528Z,12.81
2023-10-04T16:07:04.048Z,12.59
2023-10-04T16:09:49.279Z,12.63
2023-10-04T16:12:35.379Z,12.87
2023-10-04T16:15:21.402Z,13.01
2023-10-04T16:18:06.771Z,13.11
2023-10-04T16:20:52.682Z,12.57
2023-10-04T16:23:37.909Z,12.88
2023-10-04T16:26:23.432Z,13.05
2023-10-04T16:29:08.669Z,12.51
2023-10-04T16:31:54.135Z,12.85
2023-10-04T16:34:39.354Z,12.59
2023-10-04T16:37:24.799Z,12.63
2023-10-04T16:40:11.542Z,12.70
2023-10-04T16:42:57.155Z,12.18
2023-10-04T16:45:42.615Z,12.74
2023-10-04T16:48:28.043Z,12.59
2023-10-04T16:51:14.342Z,12.79
2023-10-04T16:53:59.816Z,12.62
2023-10-04T16:56:45.613Z,12.78
2023-10-04T16:59:31.586Z,12.80
2023-10-04T17:02:17.957Z,12.24
2023-10-04T17:05:03.484Z,11.97
2023-10-04T17:07:48.746Z,11.72
2023-10-04T17:10:34.068Z,11.70
2023-10-04T17:13:19.531Z,11.80
2023-10-04T17:16:05.127Z,11.69
2023-10-04T17:18:51.624Z,11.15
2023-10-04T17:21:37.109Z,11.52
2023-10-04T17:24:22.623Z,11.00
2023-10-04T17:27:07.831Z,11.33
2023-10-04T17:29:53.093Z,11.51
2023-10-04T17:32:38.773Z,10.59
2023-10-04T17:35:24.060Z,11.16
2023-10-04T17:38:09.373Z,11.08
2023-10-04T17:40:54.686Z,11.51
2023-10-04T17:43:39.757Z,10.77
2023-10-04T17:46:26.933Z,10.87
2023-10-04T17:49:12.265Z,10.80
2023-10-04T17:51:57.853Z,10.36
2023-10-04T17:54:43.792Z,11.19
2023-10-04T17:57:29.426Z,11.22
2023-10-04T18:00:15.261Z,10.79
2023-10-04T18:03:00.850Z,10.62
2023-10-04T18:05:46.474Z,10.40
2023-10-04T18:08:31.928Z,10.45
2023-10-04T18:11:17.244Z,10.97
2023-10-04T18:14:04.306Z,10.42
2023-10-04T18:16:50.779Z,10.43
2023-10-04T18:19:36.335Z,11.10
2023-10-04T18:22:21.953Z,10.78
2023-10-04T18:25:11.346Z,10.98
2023-10-04T18:27:57.312Z,10.28
2023-10-04T18:30:42.998Z,9.85
2023-10-04T18:33:29.055Z,10.49
2023-10-04T18:36:19.592Z,8.64
2023-10-04T18:39:05.854Z,8.48
2023-10-04T18:41:51.689Z,10.80
2023-10-04T18:44:38.038Z,10.77
2023-10-04T18:47:24.670Z,10.85
2023-10-04T18:50:11.230Z,10.81
2023-10-04T18:52:57.005Z,10.68
2023-10-04T18:55:42.608Z,10.84
2023-10-04T18:58:28.130Z,10.76
2023-10-04T19:01:13.659Z,10.52
2023-10-04T19:03:59.151Z,10.63
2023-10-04T19:06:44.657Z,10.40
2023-10-04T19:09:29.968Z,10.56
2023-10-04T19:12:15.702Z,10.25
2023-10-04T19:15:01.171Z,10.51
2023-10-04T19:17:47.132Z,10.33
2023-10-04T19:20:32.335Z,10.35
2023-10-04T19:23:17.541Z,10.23
2023-10-04T19:26:04.130Z,10.18
2023-10-04T19:28:49.712Z,10.10
2023-10-04T19:31:34.959Z,10.15
2023-10-04T19:34:20.255Z,10.16
2023-10-04T19:37:05.926Z,10.22
2023-10-04T19:39:52.031Z,9.80
2023-10-04T19:42:37.983Z,10.12
2023-10-04T19:45:23.540Z,10.15
2023-10-04T19:48:09.018Z,10.02
2023-10-04T19:50:54.818Z,10.04
2023-10-04T19:53:40.386Z,10.00
2023-10-04T19:56:26.215Z,10.07
2023-10-04T19:59:11.566Z,10.03
2023-10-04T20:01:56.932Z,10.08
2023-10-04T20:04:42.382Z,10.13
2023-10-04T20:07:27.946Z,10.07
2023-10-04T20:10:14.156Z,9.97
2023-10-04T20:13:03.667Z,10.02
2023-10-04T20:15:49.532Z,9.99
2023-10-04T20:18:35.308Z,9.94
2023-10-04T20:21:20.678Z,9.96
2023-10-04T20:24:07.315Z,9.97
2023-10-04T20:26:52.545Z,10.00
2023-10-04T20:29:38.986Z,9.97
2023-10-04T20:32:24.550Z,10.04
2023-10-04T20:35:10.975Z,9.97
2023-10-04T20:37:56.345Z,9.90
2023-10-04T20:40:42.026Z,9.99
2023-10-04T20:43:27.252Z,9.98
2023-10-04T20:46:12.528Z,9.90
2023-10-04T20:48:57.938Z,9.82
2023-10-04T20:51:43.323Z,9.83
2023-10-04T20:54:28.910Z,9.59
2023-10-04T20:57:14.006Z,9.83
2023-10-04T20:59:59.575Z,9.83
2023-10-04T21:02:44.979Z,9.90
2023-10-04T21:05:30.687Z,9.77
2023-10-04T21:08:16.521Z,9.98
2023-10-04T21:11:07.045Z,9.35
2023-10-04T21:13:52.699Z,9.78
2023-10-04T21:16:38.131Z,9.37
2023-10-04T21:19:23.531Z,9.68
2023-10-04T21:22:08.987Z,9.59
2023-10-04T21:24:54.449Z,9.66
2023-10-04T21:27:40.068Z,9.53
2023-10-04T21:30:25.691Z,9.43
2023-10-04T21:33:11.193Z,9.33
2023-10-04T21:35:57.513Z,9.43
2023-10-04T21:38:43.016Z,9.40
2023-10-04T21:41:30.451Z,9.41
2023-10-04T21:44:15.645Z,9.44
2023-10-04T21:47:00.891Z,9.47
2023-10-04T21:49:46.317Z,9.67
2023-10-04T21:52:31.709Z,9.58
2023-10-04T21:55:17.039Z,9.47
2023-10-04T21:58:02.929Z,9.44
2023-10-04T22:00:48.167Z,9.44
2023-10-04T22:03:33.798Z,9.46
2023-10-04T22:06:19.105Z,9.41
2023-10-04T22:09:05.194Z,9.39
2023-10-04T22:11:51.909Z,9.17
2023-10-04T22:14:37.127Z,9.45
2023-10-04T22:17:22.615Z,9.47
2023-10-04T22:20:09.127Z,9.45
2023-10-04T22:22:54.278Z,9.44
2023-10-04T22:25:40.170Z,9.42
2023-10-04T22:31:15.332Z,9.33
2023-10-04T22:34:01.303Z,9.44
2023-10-04T22:36:46.631Z,9.04
2023-10-04T22:39:32.238Z,9.36
2023-10-04T22:42:17.876Z,9.28
2023-10-04T22:45:07.307Z,9.08
2023-10-04T22:47:52.893Z,9.00
2023-10-04T22:50:38.106Z,9.11
2023-10-04T22:53:23.344Z,9.10
2023-10-04T22:56:09.594Z,9.13
2023-10-04T22:58:55.514Z,9.13
2023-10-04T23:01:40.945Z,8.52
2023-10-04T23:04:26.938Z,9.03
2023-10-04T23:07:12.243Z,9.10
2023-10-04T23:09:57.647Z,9.11
2023-10-04T23:12:44.012Z,9.00
2023-10-04T23:15:30.021Z,8.85
2023-10-04T23:18:15.778Z,8.91
2023-10-04T23:21:01.431Z,8.94
2023-10-04T23:23:46.648Z,8.90
2023-10-04T23:26:31.991Z,8.94
2023-10-04T23:29:17.542Z,9.20
2023-10-04T23:32:03.223Z,9.05
2023-10-04T23:34:48.342Z,9.02
2023-10-04T23:37:33.919Z,9.07
2023-10-04T23:40:19.484Z,9.03
2023-10-04T23:43:05.083Z,9.02
2023-10-04T23:45:50.304Z,9.00
2023-10-04T23:48:35.753Z,8.91
2023-10-04T23:51:21.225Z,9.22
2023-10-04T23:54:09.171Z,9.28
2023-10-04T23:56:54.955Z,9.14
2023-10-04T23:59:40.445Z,9.14
